Time;durP1;ratioP1;P1;durP2;ratioP2;P2;SDS_P1;SDS_P2;PMS_P1;PMS_P2;Temp;Humidity;BMP_temperature;BMP_pressure;BME280_temperature;BME280_humidity;BME280_pressure;Samples;Min_cycle;Max_cycle;Signal;HPM_P1;HPM_P2
2021/10/15 00:00:05;;;;;;;5.00;3.92;;;;;;;0.01;100.00;93459.78;2082881;28;20142;-88
2021/10/15 00:01:06;;;;;;;5.55;4.18;;;;;;;0.08;100.00;93462.56;2091500;28;20021;-89
2021/10/15 00:02:07;;;;;;;4.80;3.72;;;;;;;0.15;100.00;93457.47;2097368;28;20024;-90
2021/10/15 00:03:08;;;;;;;4.63;4.07;;;;;;;0.10;100.00;93456.97;2099131;28;20027;-89
2021/10/15 00:04:09;;;;;;;5.85;3.25;;;;;;;0.13;100.00;93458.91;2095867;28;20087;-87
2021/10/15 00:05:11;;;;;;;7.15;4.05;;;;;;;0.13;100.00;93454.44;2099409;28;20016;-88
2021/10/15 00:06:12;;;;;;;5.25;3.65;;;;;;;0.13;100.00;93449.19;2090913;28;20056;-89
2021/10/15 00:07:13;;;;;;;5.05;4.15;;;;;;;0.08;100.00;93454.66;2084253;28;20111;-89
2021/10/15 00:08:14;;;;;;;4.45;3.70;;;;;;;0.01;100.00;93451.13;2090892;28;20025;-89
2021/10/15 00:09:15;;;;;;;5.55;3.97;;;;;;;0.03;100.00;93457.56;2091004;28;20547;-90
2021/10/15 00:10:17;;;;;;;6.72;4.20;;;;;;;0.01;100.00;93448.50;2107737;28;20024;-89
2021/10/15 00:11:18;;;;;;;6.22;4.60;;;;;;;0.02;100.00;93447.41;2107400;28;20028;-89
2021/10/15 00:12:19;;;;;;;5.72;4.32;;;;;;;0.07;100.00;93450.53;2102409;28;20067;-91
2021/10/15 00:13:20;;;;;;;7.72;4.82;;;;;;;0.05;100.00;93450.13;2104141;28;20396;-89
2021/10/15 00:14:21;;;;;;;5.03;4.53;;;;;;;0.09;100.00;93448.34;2107453;28;20035;-89
2021/10/15 00:15:22;;;;;;;4.60;4.15;;;;;;;0.08;100.00;93449.41;2102194;28;20020;-89
2021/10/15 00:16:22;;;;;;;6.07;4.70;;;;;;;0.06;100.00;93453.50;2104484;28;20026;-89
2021/10/15 00:17:23;;;;;;;5.82;4.43;;;;;;;0.02;100.00;93447.41;2098919;28;20115;-89
2021/10/15 00:18:25;;;;;;;6.00;4.30;;;;;;;0.03;100.00;93451.53;2090964;28;20031;-90
2021/10/15 00:19:26;;;;;;;8.23;4.40;;;;;;;0.06;100.00;93443.75;2085018;28;20033;-88
2021/10/15 00:20:27;;;;;;;5.63;4.18;;;;;;;0.08;100.00;93440.78;2091032;28;20493;-88
2021/10/15 00:21:27;;;;;;;5.53;4.45;;;;;;;-0.01;100.00;93444.34;2090638;28;20025;-89
2021/10/15 00:22:28;;;;;;;5.70;4.65;;;;;;;-0.07;100.00;93445.72;2090767;28;20036;-89
2021/10/15 00:23:29;;;;;;;5.20;4.68;;;;;;;-0.03;100.00;93441.31;2090872;28;20017;-89
2021/10/15 00:24:31;;;;;;;5.40;4.50;;;;;;;0.00;100.00;93439.88;2096884;28;20106;-90
2021/10/15 00:25:32;;;;;;;4.32;3.92;;;;;;;-0.04;100.00;93442.41;2090732;28;20572;-89
2021/10/15 00:26:33;;;;;;;5.60;4.13;;;;;;;-0.12;100.00;93443.34;2098915;28;20059;-89
2021/10/15 00:27:34;;;;;;;5.03;4.53;;;;;;;-0.12;100.00;93445.97;2090874;28;20025;-89
2021/10/15 00:28:35;;;;;;;5.43;4.55;;;;;;;-0.17;100.00;93438.34;2098921;28;20111;-89
2021/10/15 00:29:37;;;;;;;5.78;4.05;;;;;;;-0.17;100.00;93440.22;2107342;28;20106;-89
2021/10/15 00:30:38;;;;;;;4.75;4.22;;;;;;;-0.19;100.00;93443.16;2098155;28;20389;-89
2021/10/15 00:31:39;;;;;;;4.30;3.90;;;;;;;-0.11;100.00;93436.22;2098155;28;20025;-88
2021/10/15 00:32:40;;;;;;;5.50;3.33;;;;;;;-0.07;100.00;93431.81;2090663;28;20386;-89
2021/10/15 00:33:41;;;;;;;4.35;3.63;;;;;;;-0.13;100.00;93428.69;2090781;28;20024;-88
2021/10/15 00:34:43;;;;;;;3.80;3.42;;;;;;;-0.15;100.00;93438.00;2098908;28;20028;-89
2021/10/15 00:35:44;;;;;;;4.13;3.60;;;;;;;-0.14;100.00;93442.16;2090701;28;20033;-88
2021/10/15 00:36:45;;;;;;;5.38;3.90;;;;;;;-0.08;100.00;93438.94;2098943;28;20103;-88
2021/10/15 00:37:48;;;;;;;3.88;3.13;;;;;;;-0.11;100.00;93433.59;2107291;28;20024;-88
2021/10/15 00:38:49;;;;;;;4.30;3.78;;;;;;;-0.06;100.00;93436.72;2107337;28;20016;-89
2021/10/15 00:39:50;;;;;;;5.78;3.40;;;;;;;0.03;100.00;93433.91;2107361;28;20023;-88
2021/10/15 00:40:51;;;;;;;5.10;2.95;;;;;;;0.14;100.00;93434.16;2107271;28;20135;-89
2021/10/15 00:41:52;;;;;;;4.32;3.35;;;;;;;0.19;100.00;93432.03;2099071;28;20065;-89
2021/10/15 00:42:53;;;;;;;3.67;3.28;;;;;;;0.12;100.00;93426.59;2099200;28;20424;-90
2021/10/15 00:44:20;;;;;;;4.50;2.60;;;;;;;0.16;100.00;93426.69;2090673;28;20056;-88
2021/10/15 00:45:21;;;;;;;5.38;2.88;;;;;;;0.29;100.00;93429.97;2092304;28;20044;-89
2021/10/15 00:46:22;;;;;;;2.90;2.70;;;;;;;0.13;100.00;93430.00;2098850;28;20025;-88
2021/10/15 00:47:23;;;;;;;3.75;2.85;;;;;;;0.12;100.00;93428.47;2098890;28;20492;-88
2021/10/15 00:48:24;;;;;;;3.17;2.85;;;;;;;0.19;100.00;93424.16;2082338;28;20033;-88
2021/10/15 00:49:25;;;;;;;4.68;2.58;;;;;;;0.10;100.00;93425.44;2082498;28;20463;-88
2021/10/15 00:50:26;;;;;;;3.10;2.80;;;;;;;0.10;100.00;93422.81;2082533;28;20025;-88
2021/10/15 00:51:27;;;;;;;5.72;3.03;;;;;;;0.08;100.00;93412.63;2090435;28;20087;-90
2021/10/15 00:52:28;;;;;;;4.47;2.80;;;;;;;0.10;100.00;93420.19;2098561;28;20036;-89
2021/10/15 00:53:29;;;;;;;4.65;2.90;;;;;;;0.10;100.00;93422.81;2090647;28;20031;-87
2021/10/15 00:54:30;;;;;;;4.63;2.53;;;;;;;0.08;100.00;93412.63;2082511;28;20025;-89
2021/10/15 00:55:31;;;;;;;4.75;2.95;;;;;;;0.17;100.00;93412.44;2082633;28;20029;-88
2021/10/15 00:56:33;;;;;;;3.53;2.97;;;;;;;0.11;100.00;93411.19;2090568;28;20037;-88
2021/10/15 00:57:34;;;;;;;4.18;2.70;;;;;;;0.01;100.00;93416.97;2074363;28;20395;-88
2021/10/15 00:58:35;;;;;;;4.38;3.00;;;;;;;0.10;100.00;93412.31;2074190;28;20075;-89
2021/10/15 00:59:36;;;;;;;4.20;3.00;;;;;;;0.06;100.00;93411.47;2085182;28;20551;-89
2021/10/15 01:00:37;;;;;;;3.40;2.53;;;;;;;0.10;100.00;93413.06;2090693;28;20088;-88
2021/10/15 01:01:39;;;;;;;4.63;2.75;;;;;;;0.02;100.00;93413.25;2090584;28;20024;-89
2021/10/15 01:02:43;;;;;;;3.17;2.72;;;;;;;-0.04;100.00;93408.25;2090670;28;20022;-88
2021/10/15 01:03:44;;;;;;;7.72;2.85;;;;;;;-0.06;100.00;93405.19;2090999;28;20043;-88
2021/10/15 01:04:45;;;;;;;3.55;2.90;;;;;;;-0.14;100.00;93406.13;2090695;28;20020;-89
2021/10/15 01:05:46;;;;;;;3.30;2.70;;;;;;;-0.13;100.00;93404.25;2082334;28;20103;-87
2021/10/15 01:06:48;;;;;;;3.78;2.80;;;;;;;-0.11;100.00;93402.06;2074124;28;20057;-88
2021/10/15 01:07:49;;;;;;;4.78;2.83;;;;;;;-0.06;100.00;93405.19;2090739;28;20025;-88
2021/10/15 01:08:50;;;;;;;4.25;3.10;;;;;;;-0.10;100.00;93401.72;2098854;28;20025;-88
2021/10/15 01:09:51;;;;;;;2.80;2.40;;;;;;;-0.17;100.00;93398.19;2090823;28;20382;-88
2021/10/15 01:10:53;;;;;;;4.45;2.75;;;;;;;-0.04;100.00;93403.00;2090924;28;20528;-89
2021/10/15 01:11:55;;;;;;;4.97;3.38;;;;;;;-0.02;100.00;93398.16;2075727;28;20061;-89
2021/10/15 01:12:58;;;;;;;3.33;2.72;;;;;;;-0.05;100.00;93398.06;2075963;28;20021;-89
2021/10/15 01:13:59;;;;;;;3.40;2.97;;;;;;;0.02;100.00;93397.47;2084353;28;20017;-88
2021/10/15 01:15:00;;;;;;;4.20;2.88;;;;;;;-0.09;100.00;93390.13;2092078;28;20394;-90
2021/10/15 01:16:03;;;;;;;3.63;2.92;;;;;;;-0.12;100.00;93393.44;2073966;28;20085;-89
2021/10/15 01:17:05;;;;;;;3.33;2.85;;;;;;;-0.22;100.00;93396.59;2074344;28;20026;-89
2021/10/15 01:18:13;;;;;;;4.57;2.70;;;;;;;-0.18;100.00;93392.16;2073853;28;20097;-89
2021/10/15 01:19:14;;;;;;;4.10;2.90;;;;;;;-0.30;100.00;93389.63;2083964;28;20028;-90
2021/10/15 01:20:15;;;;;;;2.50;2.30;;;;;;;-0.29;100.00;93388.53;2081884;28;20422;-88
2021/10/15 01:21:16;;;;;;;4.60;2.70;;;;;;;-0.33;100.00;93388.44;2090521;28;20021;-88
2021/10/15 01:22:17;;;;;;;3.10;2.83;;;;;;;-0.28;100.00;93390.81;2098581;28;20020;-87
2021/10/15 01:23:18;;;;;;;3.50;2.95;;;;;;;-0.27;100.00;93387.06;2090362;28;20071;-87
2021/10/15 01:24:19;;;;;;;2.83;2.38;;;;;;;-0.27;100.00;93388.94;2090504;28;20426;-87
2021/10/15 01:25:20;;;;;;;3.10;2.80;;;;;;;-0.28;100.00;93388.19;2089505;28;20055;-89
2021/10/15 01:26:22;;;;;;;2.85;2.53;;;;;;;-0.34;100.00;93388.78;2096950;28;20029;-89
2021/10/15 01:27:24;;;;;;;3.00;2.50;;;;;;;-0.25;100.00;93386.75;2090284;28;20028;-89
2021/10/15 01:28:26;;;;;;;5.03;2.80;;;;;;;-0.32;100.00;93383.94;2082171;28;20057;-88
2021/10/15 01:29:27;;;;;;;3.80;2.65;;;;;;;-0.21;100.00;93382.34;2090770;28;20028;-89
2021/10/15 01:30:29;;;;;;;3.28;2.60;;;;;;;-0.26;100.00;93379.97;2090319;28;20052;-89
2021/10/15 01:31:30;;;;;;;2.95;2.70;;;;;;;-0.13;100.00;93384.03;2073820;28;20022;-87
2021/10/15 01:32:31;;;;;;;4.70;2.78;;;;;;;-0.12;100.00;93385.53;2073754;28;20029;-88
2021/10/15 01:33:32;;;;;;;3.35;2.83;;;;;;;-0.21;100.00;93384.97;2073741;28;20022;-89
2021/10/15 01:34:33;;;;;;;3.03;2.72;;;;;;;-0.15;100.00;93378.34;2082332;28;20398;-89
2021/10/15 01:35:34;;;;;;;8.65;2.97;;;;;;;-0.27;100.00;93378.44;2081981;28;20449;-89
2021/10/15 01:36:35;;;;;;;3.03;2.67;;;;;;;-0.11;100.00;93381.06;2090158;28;20025;-88
2021/10/15 01:37:36;;;;;;;4.00;2.88;;;;;;;-0.21;100.00;93373.69;2081833;28;20029;-88
2021/10/15 01:38:37;;;;;;;5.68;2.95;;;;;;;-0.10;100.00;93366.81;2081863;28;20429;-89
2021/10/15 01:39:38;;;;;;;4.68;2.90;;;;;;;-0.02;100.00;93368.50;2082047;28;20078;-89
2021/10/15 01:40:40;;;;;;;2.67;2.33;;;;;;;-0.07;100.00;93372.16;2082146;28;20060;-89
2021/10/15 01:41:41;;;;;;;2.83;2.53;;;;;;;-0.11;100.00;93365.28;2082200;28;20027;-88
2021/10/15 01:42:54;;;;;;;2.30;2.10;;;;;;;-0.15;100.00;93364.44;2081776;28;20496;-89
2021/10/15 01:43:55;;;;;;;5.95;2.70;;;;;;;0.07;100.00;93371.69;2083516;28;20071;-88
2021/10/15 01:44:56;;;;;;;3.05;2.20;;;;;;;0.05;100.00;93362.66;2093057;28;20020;-88
2021/10/15 01:45:59;;;;;;;3.20;2.65;;;;;;;-0.07;100.00;93366.13;2082060;28;20029;-89
2021/10/15 01:46:59;;;;;;;9.63;3.00;;;;;;;-0.07;100.00;93366.88;2090532;28;20501;-89
2021/10/15 01:48:02;;;;;;;3.80;2.45;;;;;;;-0.11;100.00;93358.16;2106676;28;20020;-88
2021/10/15 01:49:03;;;;;;;3.67;2.60;;;;;;;-0.22;100.00;93359.81;2098466;28;20485;-89
2021/10/15 01:50:04;;;;;;;3.65;2.45;;;;;;;-0.26;100.00;93354.47;2081821;28;20021;-88
2021/10/15 01:51:05;;;;;;;4.00;2.35;;;;;;;-0.25;100.00;93355.22;2073625;28;20121;-88
2021/10/15 01:52:06;;;;;;;3.75;2.90;;;;;;;-0.31;100.00;93359.19;2085731;28;20033;-90
2021/10/15 01:53:08;;;;;;;3.38;2.45;;;;;;;-0.39;100.00;93354.91;2098515;28;20017;-89
2021/10/15 01:54:09;;;;;;;4.90;2.63;;;;;;;-0.36;100.00;93352.34;2098902;28;20036;-88
2021/10/15 01:55:10;;;;;;;3.50;2.47;;;;;;;-0.33;100.00;93350.91;2090910;28;20028;-88
2021/10/15 01:56:11;;;;;;;3.28;2.58;;;;;;;-0.35;100.00;93351.25;2091126;28;20104;-88
2021/10/15 01:57:12;;;;;;;4.40;2.70;;;;;;;-0.42;100.00;93353.72;2091147;28;20051;-90
2021/10/15 01:58:16;;;;;;;3.67;2.42;;;;;;;-0.38;100.00;93353.81;2099443;28;20385;-88
2021/10/15 01:59:17;;;;;;;2.53;2.33;;;;;;;-0.24;100.00;93342.84;2099703;28;20031;-89
2021/10/15 02:00:18;;;;;;;2.72;2.45;;;;;;;-0.33;100.00;93346.41;2098044;28;20028;-91
2021/10/15 02:01:19;;;;;;;4.00;2.47;;;;;;;-0.30;100.00;93345.75;2097919;28;20508;-89
2021/10/15 02:02:20;;;;;;;3.38;2.50;;;;;;;-0.32;100.00;93340.06;2094487;28;20032;-89
2021/10/15 02:03:21;;;;;;;2.83;2.03;;;;;;;-0.30;100.00;93340.50;2089884;28;20029;-89
2021/10/15 02:04:23;;;;;;;2.88;2.38;;;;;;;-0.29;100.00;93341.25;2089964;28;20020;-89
2021/10/15 02:05:24;;;;;;;5.40;2.78;;;;;;;-0.19;100.00;93335.47;2089972;28;20047;-89
2021/10/15 02:07:57;;;;;;;2.38;2.17;;;;;;;-0.32;100.00;93334.81;2131215;27;20175;-83
2021/10/15 02:08:58;;;;;;;3.25;2.30;;;;;;;-0.33;100.00;93338.53;2128186;27;20754;-83
2021/10/15 02:09:59;;;;;;;6.68;2.83;;;;;;;-0.33;100.00;93335.91;2113443;28;20031;-81
2021/10/15 02:11:00;;;;;;;2.53;2.30;;;;;;;-0.26;100.00;93332.69;2122110;27;20027;-79
2021/10/15 02:12:03;;;;;;;2.50;2.30;;;;;;;-0.29;100.00;93333.38;2119678;28;20485;-81
2021/10/15 02:13:04;;;;;;;3.20;2.25;;;;;;;-0.35;100.00;93334.72;2105622;28;20060;-81
2021/10/15 02:14:05;;;;;;;2.30;2.10;;;;;;;-0.32;100.00;93328.78;2116408;27;21784;-85
2021/10/15 02:15:08;;;;;;;4.45;2.30;;;;;;;-0.41;100.00;93321.09;2113529;28;20115;-84
2021/10/15 02:16:09;;;;;;;3.53;2.63;;;;;;;-0.42;100.00;93327.47;2106574;28;20476;-83
2021/10/15 02:17:10;;;;;;;2.72;2.50;;;;;;;-0.39;100.00;93331.28;2113560;28;20027;-84
2021/10/15 02:18:11;;;;;;;2.45;2.25;;;;;;;-0.39;100.00;93324.16;2096689;28;20490;-82
2021/10/15 02:19:12;;;;;;;3.78;2.30;;;;;;;-0.41;100.00;93320.34;2105236;28;20032;-82
2021/10/15 02:20:15;;;;;;;3.13;2.78;;;;;;;-0.30;100.00;93321.34;2121957;28;20114;-82
2021/10/15 02:21:16;;;;;;;4.05;2.67;;;;;;;-0.34;100.00;93320.50;2121686;28;20023;-81
2021/10/15 02:22:17;;;;;;;4.30;2.45;;;;;;;-0.39;100.00;93324.16;2113479;28;20070;-80
2021/10/15 02:23:18;;;;;;;2.70;2.47;;;;;;;-0.49;100.00;93319.41;2104999;28;20390;-81
2021/10/15 02:24:19;;;;;;;2.88;2.20;;;;;;;-0.35;100.00;93318.97;2096636;28;20033;-83
2021/10/15 02:25:20;;;;;;;3.42;2.70;;;;;;;-0.40;100.00;93319.22;2096733;28;20441;-84
2021/10/15 02:26:21;;;;;;;2.92;2.40;;;;;;;-0.41;100.00;93315.09;2124222;27;20036;-82
2021/10/15 02:27:22;;;;;;;3.58;2.67;;;;;;;-0.37;100.00;93314.06;2121882;27;20365;-83
2021/10/15 02:28:23;;;;;;;3.05;2.70;;;;;;;-0.22;100.00;93315.16;2130517;27;20073;-81
2021/10/15 02:29:24;;;;;;;3.00;2.58;;;;;;;-0.37;100.00;93319.31;2120460;28;20020;-84
2021/10/15 02:30:26;;;;;;;5.43;2.40;;;;;;;-0.41;100.00;93309.84;2113590;28;20491;-81
2021/10/15 02:31:28;;;;;;;2.42;2.22;;;;;;;-0.39;100.00;93312.91;2113656;28;20031;-82
2021/10/15 02:32:29;;;;;;;2.63;2.42;;;;;;;-0.42;100.00;93321.44;2105179;28;20024;-82
2021/10/15 02:33:30;;;;;;;2.70;2.50;;;;;;;-0.50;100.00;93315.28;2105024;28;20538;-83
2021/10/15 02:34:31;;;;;;;2.60;2.40;;;;;;;-0.42;100.00;93310.94;2121865;28;20034;-81
2021/10/15 02:35:32;;;;;;;3.58;2.80;;;;;;;-0.41;100.00;93310.59;2121952;28;20024;-82
2021/10/15 02:36:33;;;;;;;3.40;2.40;;;;;;;-0.38;100.00;93317.03;2105050;28;20085;-80
2021/10/15 02:37:34;;;;;;;3.08;2.80;;;;;;;-0.43;100.00;93306.81;2104889;28;20031;-80
2021/10/15 02:38:35;;;;;;;3.30;2.78;;;;;;;-0.34;100.00;93313.38;2113410;28;20125;-83
2021/10/15 02:39:36;;;;;;;3.33;2.70;;;;;;;-0.37;100.00;93311.44;2104976;28;20469;-82
2021/10/15 02:40:37;;;;;;;4.82;3.00;;;;;;;-0.42;100.00;93303.81;2096538;28;20051;-81
2021/10/15 02:41:39;;;;;;;2.88;2.63;;;;;;;-0.47;100.00;93306.72;2104983;28;20034;-82
2021/10/15 02:42:41;;;;;;;3.30;2.92;;;;;;;-0.42;100.00;93308.31;2113168;28;20081;-81
2021/10/15 02:43:44;;;;;;;4.40;2.58;;;;;;;-0.55;100.00;93316.28;2113437;28;20024;-79
2021/10/15 02:44:45;;;;;;;3.28;2.90;;;;;;;-0.54;100.00;93306.56;2113607;28;20058;-83
2021/10/15 02:45:46;;;;;;;3.53;2.60;;;;;;;-0.57;100.00;93308.00;2104836;28;20024;-82
2021/10/15 02:46:47;;;;;;;3.75;2.65;;;;;;;-0.56;100.00;93311.38;2096511;28;20473;-83
2021/10/15 02:47:48;;;;;;;3.28;2.97;;;;;;;-0.60;100.00;93305.28;2096215;28;20535;-80
2021/10/15 02:48:49;;;;;;;3.05;2.75;;;;;;;-0.65;100.00;93313.44;2096510;28;20031;-83
2021/10/15 02:49:50;;;;;;;3.08;2.80;;;;;;;-0.67;100.00;93308.50;2113328;28;20519;-83
2021/10/15 02:50:51;;;;;;;3.08;2.78;;;;;;;-0.69;100.00;93304.72;2104936;28;20016;-84
2021/10/15 02:51:52;;;;;;;3.72;2.60;;;;;;;-0.67;100.00;93300.63;2105863;28;20028;-79
2021/10/15 02:52:53;;;;;;;2.80;2.60;;;;;;;-0.72;100.00;93305.38;2121648;28;20149;-85
2021/10/15 02:53:54;;;;;;;3.85;2.30;;;;;;;-0.71;100.00;93299.78;2113245;28;20034;-82
2021/10/15 02:54:55;;;;;;;3.83;2.25;;;;;;;-0.69;100.00;93302.09;2104848;28;20028;-84
2021/10/15 02:55:56;;;;;;;4.30;2.30;;;;;;;-0.70;100.00;93305.78;2104755;28;20054;-83
2021/10/15 02:56:57;;;;;;;3.35;2.58;;;;;;;-0.67;100.00;93305.88;2096387;28;20400;-81
2021/10/15 02:57:58;;;;;;;2.40;2.20;;;;;;;-0.68;100.00;93299.09;2088252;28;20417;-82
2021/10/15 02:58:59;;;;;;;2.80;2.30;;;;;;;-0.67;100.00;93307.75;2096408;28;20059;-83
2021/10/15 03:00:00;;;;;;;3.83;2.55;;;;;;;-0.74;100.00;93302.34;2104796;28;20024;-84
2021/10/15 03:01:01;;;;;;;3.03;2.53;;;;;;;-0.70;100.00;93303.16;2104618;28;20028;-82
2021/10/15 03:02:02;;;;;;;3.28;2.53;;;;;;;-0.70;100.00;93303.94;2113242;28;20020;-80
2021/10/15 03:03:03;;;;;;;2.90;2.60;;;;;;;-0.72;100.00;93306.13;2113088;28;20571;-81
2021/10/15 03:04:06;;;;;;;3.10;2.60;;;;;;;-0.66;100.00;93299.56;2104841;28;20228;-81
2021/10/15 03:05:08;;;;;;;2.72;2.50;;;;;;;-0.69;100.00;93299.47;2096690;28;20135;-82
2021/10/15 03:06:10;;;;;;;5.95;2.65;;;;;;;-0.78;100.00;93297.00;2105230;28;20055;-82
2021/10/15 03:07:11;;;;;;;3.03;2.70;;;;;;;-0.74;100.00;93291.84;2112851;28;20032;-82
2021/10/15 03:08:12;;;;;;;2.70;2.50;;;;;;;-0.68;100.00;93293.88;2104619;28;20061;-83
2021/10/15 03:09:13;;;;;;;2.47;2.25;;;;;;;-0.69;100.00;93296.84;2096305;28;20033;-83
2021/10/15 03:10:14;;;;;;;5.53;2.60;;;;;;;-0.68;100.00;93300.97;2088113;28;20033;-83
2021/10/15 03:11:15;;;;;;;2.78;2.58;;;;;;;-0.67;100.00;93292.75;2088035;28;20060;-82
2021/10/15 03:12:16;;;;;;;2.47;2.28;;;;;;;-0.66;100.00;93293.50;2104766;28;20481;-80
2021/10/15 03:13:17;;;;;;;2.53;2.33;;;;;;;-0.64;100.00;93296.56;2113516;28;20023;-81
2021/10/15 03:14:18;;;;;;;2.65;2.45;;;;;;;-0.60;100.00;93290.31;2113751;28;20530;-82
2021/10/15 03:15:19;;;;;;;2.30;2.08;;;;;;;-0.67;100.00;93295.38;2104576;28;20032;-80
2021/10/15 03:16:20;;;;;;;2.35;2.15;;;;;;;-0.67;100.00;93298.00;2096358;28;20024;-81
2021/10/15 03:17:21;;;;;;;2.28;2.08;;;;;;;-0.57;100.00;93297.50;2113037;28;20162;-82
2021/10/15 03:18:22;;;;;;;2.50;2.30;;;;;;;-0.58;100.00;93300.44;2113189;28;20125;-82
2021/10/15 03:19:24;;;;;;;3.22;2.60;;;;;;;-0.61;100.00;93291.41;2090558;28;20052;-83
2021/10/15 03:20:25;;;;;;;2.63;2.33;;;;;;;-0.67;100.00;93292.75;2090972;28;20040;-80
2021/10/15 03:21:26;;;;;;;4.10;2.42;;;;;;;-0.63;100.00;93290.97;2098943;28;20033;-82
2021/10/15 03:22:27;;;;;;;2.88;2.40;;;;;;;-0.66;100.00;93289.06;2099007;28;20024;-82
2021/10/15 03:23:29;;;;;;;4.35;2.25;;;;;;;-0.57;100.00;93289.63;2091019;28;20052;-81
2021/10/15 03:24:30;;;;;;;2.53;2.33;;;;;;;-0.70;100.00;93290.03;2091114;28;20025;-82
2021/10/15 03:25:31;;;;;;;3.88;2.40;;;;;;;-0.77;100.00;93286.16;2098971;28;20028;-82
2021/10/15 03:26:32;;;;;;;2.42;2.22;;;;;;;-0.70;100.00;93288.19;2099561;28;20468;-83
2021/10/15 03:27:33;;;;;;;2.35;2.15;;;;;;;-0.79;100.00;93288.38;2099402;28;20024;-81
2021/10/15 03:28:34;;;;;;;2.47;2.28;;;;;;;-0.79;100.00;93285.75;2090627;28;20087;-83
2021/10/15 03:29:35;;;;;;;4.30;2.15;;;;;;;-0.70;100.00;93288.19;2090787;28;20032;-78
2021/10/15 03:30:36;;;;;;;2.40;2.00;;;;;;;-0.62;100.00;93282.00;2098874;28;20052;-81
2021/10/15 03:31:37;;;;;;;2.50;2.00;;;;;;;-0.65;100.00;93289.81;2090686;28;20048;-84
2021/10/15 03:32:38;;;;;;;2.30;2.10;;;;;;;-0.66;100.00;93288.25;2082356;28;20029;-80
2021/10/15 03:33:39;;;;;;;2.45;1.92;;;;;;;-0.71;100.00;93291.91;2082471;28;20121;-82
2021/10/15 03:34:40;;;;;;;3.03;2.30;;;;;;;-0.76;100.00;93284.28;2090669;28;20056;-83
2021/10/15 03:35:41;;;;;;;3.80;2.22;;;;;;;-0.83;100.00;93284.16;2098958;28;20025;-79
2021/10/15 03:36:42;;;;;;;3.17;2.30;;;;;;;-0.82;100.00;93288.28;2090634;28;20029;-82
2021/10/15 03:37:45;;;;;;;5.45;2.28;;;;;;;-0.83;100.00;93281.53;2090477;28;20091;-82
2021/10/15 03:38:46;;;;;;;2.85;2.30;;;;;;;-0.81;100.00;93281.94;2082673;28;20030;-84
2021/10/15 03:39:47;;;;;;;2.35;2.15;;;;;;;-0.90;100.00;93286.59;2090705;28;20032;-82
2021/10/15 03:40:48;;;;;;;1.88;1.77;;;;;;;-0.83;100.00;93284.91;2099413;28;20392;-83
2021/10/15 03:41:49;;;;;;;2.45;2.00;;;;;;;-0.76;100.00;93279.81;2108105;28;20393;-83
2021/10/15 03:42:50;;;;;;;2.38;2.17;;;;;;;-0.76;100.00;93286.91;2115801;28;20039;-80
2021/10/15 03:43:50;;;;;;;3.67;2.13;;;;;;;-0.76;100.00;93292.16;2115756;28;20023;-79
2021/10/15 03:44:51;;;;;;;2.22;2.03;;;;;;;-0.76;100.00;93284.28;2116344;28;20093;-82
2021/10/15 03:45:52;;;;;;;3.08;2.17;;;;;;;-0.77;100.00;93291.41;2115749;28;20428;-83
2021/10/15 03:46:53;;;;;;;3.58;2.38;;;;;;;-0.77;100.00;93290.66;2107557;28;20077;-81
2021/10/15 03:47:54;;;;;;;5.35;2.50;;;;;;;-0.81;100.00;93287.19;2107276;28;20024;-82
2021/10/15 03:48:55;;;;;;;3.17;2.13;;;;;;;-0.88;100.00;93292.25;2115775;28;20098;-83
2021/10/15 03:49:56;;;;;;;2.47;2.28;;;;;;;-0.77;100.00;93295.91;2107154;28;20034;-84
2021/10/15 03:50:57;;;;;;;2.75;2.10;;;;;;;-0.83;100.00;93290.16;2098858;28;20033;-85
2021/10/15 03:51:58;;;;;;;4.03;2.13;;;;;;;-0.78;100.00;93283.88;2107064;28;20032;-84
2021/10/15 03:52:59;;;;;;;2.60;2.00;;;;;;;-0.90;100.00;93289.22;2107297;28;20051;-83
2021/10/15 03:54:00;;;;;;;2.40;2.22;;;;;;;-0.95;100.00;93292.84;2115540;28;20015;-81
2021/10/15 03:55:02;;;;;;;6.03;2.30;;;;;;;-0.96;100.00;93286.09;2115693;28;20019;-83
2021/10/15 03:56:03;;;;;;;3.22;2.42;;;;;;;-0.91;100.00;93295.56;2104063;28;20033;-81
2021/10/15 03:57:04;;;;;;;2.50;2.30;;;;;;;-0.82;100.00;93285.66;2104535;28;20035;-84
2021/10/15 03:58:05;;;;;;;2.78;1.90;;;;;;;-0.80;100.00;93291.31;2107081;28;20032;-83
2021/10/15 03:59:06;;;;;;;2.42;2.03;;;;;;;-0.84;100.00;93288.63;2101584;28;20028;-80
2021/10/15 04:00:12;;;;;;;2.25;2.03;;;;;;;-0.78;100.00;93294.38;2103932;28;20544;-80
2021/10/15 04:01:12;;;;;;;4.70;2.00;;;;;;;-0.82;100.00;93278.56;2087131;28;20051;-83
2021/10/15 04:02:13;;;;;;;2.58;2.03;;;;;;;-0.80;100.00;93288.69;2090349;28;20043;-82
2021/10/15 04:03:15;;;;;;;1.90;1.75;;;;;;;-0.78;100.00;93286.50;2102997;28;20093;-81
2021/10/15 04:04:15;;;;;;;2.75;2.13;;;;;;;-0.89;100.00;93293.34;2111342;28;20066;-82
2021/10/15 04:05:16;;;;;;;2.38;2.17;;;;;;;-0.86;100.00;93290.81;2111030;28;20124;-84
2021/10/15 04:06:17;;;;;;;1.70;1.60;;;;;;;-0.90;100.00;93289.22;2090407;28;20057;-83
2021/10/15 04:07:18;;;;;;;3.35;1.83;;;;;;;-0.99;100.00;93286.75;2098579;28;20090;-80
2021/10/15 04:08:19;;;;;;;2.00;1.80;;;;;;;-0.99;100.00;93286.75;2098761;28;20040;-84
2021/10/15 04:09:20;;;;;;;2.03;1.92;;;;;;;-0.97;100.00;93286.41;2098788;28;20390;-79
2021/10/15 04:10:21;;;;;;;5.18;2.10;;;;;;;-0.97;100.00;93289.03;2106921;28;20362;-82
2021/10/15 04:11:22;;;;;;;2.30;2.05;;;;;;;-1.01;100.00;93278.44;2106920;28;20477;-82
2021/10/15 04:12:23;;;;;;;1.98;1.80;;;;;;;-0.98;100.00;93285.66;2115367;28;20027;-81
2021/10/15 04:13:24;;;;;;;1.83;1.70;;;;;;;-1.04;100.00;93282.53;2106951;28;20031;-82
2021/10/15 04:14:25;;;;;;;3.30;1.83;;;;;;;-1.00;100.00;93279.25;2095666;28;20036;-79
2021/10/15 04:15:26;;;;;;;4.32;2.40;;;;;;;-1.03;100.00;93278.03;2098743;28;20040;-83
2021/10/15 04:16:27;;;;;;;2.50;2.17;;;;;;;-1.12;100.00;93278.22;2107227;28;20111;-84
2021/10/15 04:17:28;;;;;;;3.75;2.60;;;;;;;-1.02;100.00;93275.06;2098506;28;20070;-83
2021/10/15 04:18:29;;;;;;;4.25;3.45;;;;;;;-1.11;100.00;93278.97;2107089;28;20024;-83
2021/10/15 04:19:30;;;;;;;5.97;4.43;;;;;;;-1.09;100.00;93272.28;2104723;28;20028;-82
2021/10/15 04:20:31;;;;;;;5.72;5.20;;;;;;;-1.09;100.00;93269.66;2098501;28;20119;-81
2021/10/15 04:21:32;;;;;;;7.18;6.47;;;;;;;-1.11;100.00;93274.47;2090368;28;20033;-81
2021/10/15 04:22:33;;;;;;;7.57;6.88;;;;;;;-1.21;100.00;93279.47;2091908;28;20029;-85
2021/10/15 04:23:34;;;;;;;11.32;9.15;;;;;;;-1.21;100.00;93276.84;2090204;28;20032;-80
2021/10/15 04:24:35;;;;;;;9.40;8.50;;;;;;;-1.12;100.00;93275.59;2090278;28;20124;-85
2021/10/15 04:25:36;;;;;;;9.07;8.18;;;;;;;-1.14;100.00;93269.13;2090084;28;20025;-80
2021/10/15 04:26:37;;;;;;;7.75;6.88;;;;;;;-1.21;100.00;93268.97;2090146;28;20028;-82
2021/10/15 04:27:38;;;;;;;8.63;7.30;;;;;;;-1.11;100.00;93268.47;2090017;28;20029;-81
2021/10/15 04:28:39;;;;;;;6.93;6.20;;;;;;;-1.11;100.00;93271.84;2090355;28;20029;-81
2021/10/15 04:29:40;;;;;;;5.70;5.20;;;;;;;-1.13;100.00;93266.19;2098423;28;20025;-82
2021/10/15 04:30:41;;;;;;;5.88;4.95;;;;;;;-1.17;100.00;93264.59;2097600;28;20114;-82
2021/10/15 04:31:42;;;;;;;7.10;6.40;;;;;;;-1.10;100.00;93262.13;2106678;28;20020;-81
2021/10/15 04:32:42;;;;;;;6.20;5.60;;;;;;;-1.18;100.00;93269.06;2115348;28;20047;-85
2021/10/15 04:33:44;;;;;;;4.80;4.40;;;;;;;-1.10;100.00;93260.28;2090465;28;20029;-81
2021/10/15 04:34:45;;;;;;;5.18;4.68;;;;;;;-1.13;100.00;93258.34;2090291;28;20454;-82
2021/10/15 04:35:46;;;;;;;4.30;3.95;;;;;;;-1.16;100.00;93259.00;2098369;28;20024;-80
2021/10/15 04:36:47;;;;;;;3.78;3.47;;;;;;;-1.16;100.00;93259.00;2112746;28;20119;-82
2021/10/15 04:37:47;;;;;;;3.50;3.20;;;;;;;-1.20;100.00;93257.38;2106628;28;20042;-82
2021/10/15 04:38:48;;;;;;;3.28;2.90;;;;;;;-1.21;100.00;93261.88;2090520;28;20031;-80
2021/10/15 04:39:49;;;;;;;3.00;2.70;;;;;;;-1.21;100.00;93259.25;2089458;28;20036;-81
2021/10/15 04:40:50;;;;;;;3.28;2.58;;;;;;;-1.22;100.00;93262.97;2091368;28;20033;-82
2021/10/15 04:41:51;;;;;;;2.63;2.40;;;;;;;-1.21;100.00;93259.25;2115215;28;20464;-84
2021/10/15 04:42:52;;;;;;;2.65;2.45;;;;;;;-1.22;100.00;93265.59;2114184;28;20102;-83
2021/10/15 04:43:55;;;;;;;5.13;2.95;;;;;;;-1.29;100.00;93257.56;2091167;28;20025;-83
2021/10/15 04:44:56;;;;;;;2.70;2.50;;;;;;;-1.18;100.00;93258.59;2097333;28;20497;-85
2021/10/15 04:45:57;;;;;;;2.80;2.50;;;;;;;-1.26;100.00;93256.88;2112567;28;20059;-82
2021/10/15 04:46:58;;;;;;;3.25;2.30;;;;;;;-1.17;100.00;93259.34;2104791;28;20052;-81